sensor_id;sensor_type;location;lat;lon;timestamp;pressure;altitude;pressure_sealevel;temperature;humidity
2178;BME280;1095;50.992;6.798;2023-04-25T00:00:30;100290.97;;;5.75;100.00
2178;BME280;1095;50.992;6.798;2023-04-25T00:02:56;100285.63;;;5.67;100.00
2178;BME280;1095;50.992;6.798;2023-04-25T00:05:25;100282.34;;;5.65;100.00
2178;BME280;1095;50.992;6.798;2023-04-25T00:07:52;100289.56;;;5.61;100.00
2178;BME280;1095;50.992;6.798;2023-04-25T00:10:19;100288.63;;;5.62;100.00
2178;BME280;1095;50.992;6.798;2023-04-25T00:12:45;100279.31;;;5.60;100.00
2178;BME280;1095;50.992;6.798;2023-04-25T00:15:15;100285.31;;;5.51;100.00
2178;BME280;1095;50.992;6.798;2023-04-25T00:17:41;100286.38;;;5.48;100.00
2178;BME280;1095;50.992;6.798;2023-04-25T00:20:08;100294.44;;;5.45;100.00
2178;BME280;1095;50.992;6.798;2023-04-25T00:22:36;100285.28;;;5.41;100.00
2178;BME280;1095;50.992;6.798;2023-04-25T00:25:03;100282.75;;;5.30;100.00
2178;BME280;1095;50.992;6.798;2023-04-25T00:27:30;100291.06;;;5.24;100.00
2178;BME280;1095;50.992;6.798;2023-04-25T00:29:57;100292.00;;;5.23;100.00
2178;BME280;1095;50.992;6.798;2023-04-25T00:32:23;100291.50;;;5.29;100.00
2178;BME280;1095;50.992;6.798;2023-04-25T00:34:50;100291.06;;;5.24;100.00
2178;BME280;1095;50.992;6.798;2023-04-25T00:37:16;100294.19;;;5.18;100.00
2178;BME280;1095;50.992;6.798;2023-04-25T00:39:44;100298.00;;;5.14;100.00
2178;BME280;1095;50.992;6.798;2023-04-25T00:42:11;100292.69;;;5.15;100.00
2178;BME280;1095;50.992;6.798;2023-04-25T00:44:38;100294.97;;;5.09;100.00
2178;BME280;1095;50.992;6.798;2023-04-25T00:47:04;100296.34;;;5.13;100.00
2178;BME280;1095;50.992;6.798;2023-04-25T00:49:31;100295.75;;;4.99;100.00
2178;BME280;1095;50.992;6.798;2023-04-25T00:51:57;100292.88;;;5.03;100.00
2178;BME280;1095;50.992;6.798;2023-04-25T00:54:23;100286.69;;;4.94;100.00
2178;BME280;1095;50.992;6.798;2023-04-25T00:56:52;100288.16;;;4.87;100.00
2178;BME280;1095;50.992;6.798;2023-04-25T00:59:19;100285.94;;;4.82;100.00
2178;BME280;1095;50.992;6.798;2023-04-25T01:01:45;100284.75;;;4.86;100.00
2178;BME280;1095;50.992;6.798;2023-04-25T01:04:12;100292.06;;;4.81;100.00
2178;BME280;1095;50.992;6.798;2023-04-25T01:06:39;100293.97;;;4.79;100.00
2178;BME280;1095;50.992;6.798;2023-04-25T01:09:06;100299.72;;;4.83;100.00
2178;BME280;1095;50.992;6.798;2023-04-25T01:11:33;100304.34;;;4.79;100.00
2178;BME280;1095;50.992;6.798;2023-04-25T01:14:01;100305.28;;;4.78;100.00
2178;BME280;1095;50.992;6.798;2023-04-25T01:16:27;100301.75;;;4.79;100.00
2178;BME280;1095;50.992;6.798;2023-04-25T01:18:54;100302.06;;;4.86;100.00
2178;BME280;1095;50.992;6.798;2023-04-25T01:21:22;100306.44;;;4.85;100.00
2178;BME280;1095;50.992;6.798;2023-04-25T01:23:51;100306.22;;;4.77;100.00
2178;BME280;1095;50.992;6.798;2023-04-25T01:26:17;100301.31;;;4.74;100.00
2178;BME280;1095;50.992;6.798;2023-04-25T01:28:46;100303.34;;;4.71;100.00
2178;BME280;1095;50.992;6.798;2023-04-25T01:31:13;100306.56;;;4.63;100.00
2178;BME280;1095;50.992;6.798;2023-04-25T01:33:40;100304.22;;;4.60;100.00
2178;BME280;1095;50.992;6.798;2023-04-25T01:36:06;100309.41;;;4.60;100.00
2178;BME280;1095;50.992;6.798;2023-04-25T01:38:34;100312.25;;;4.57;100.00
2178;BME280;1095;50.992;6.798;2023-04-25T01:41:01;100317.88;;;4.62;100.00
2178;BME280;1095;50.992;6.798;2023-04-25T01:43:27;100311.56;;;4.55;100.00
2178;BME280;1095;50.992;6.798;2023-04-25T01:45:54;100312.63;;;4.52;100.00
2178;BME280;1095;50.992;6.798;2023-04-25T01:48:20;100314.63;;;4.49;100.00
2178;BME280;1095;50.992;6.798;2023-04-25T01:50:47;100313.94;;;4.47;100.00
2178;BME280;1095;50.992;6.798;2023-04-25T01:53:13;100325.00;;;4.49;100.00
2178;BME280;1095;50.992;6.798;2023-04-25T01:55:41;100326.53;;;4.51;100.00
2178;BME280;1095;50.992;6.798;2023-04-25T01:58:08;100323.22;;;4.49;100.00
2178;BME280;1095;50.992;6.798;2023-04-25T02:00:38;100332.28;;;4.55;100.00
2178;BME280;1095;50.992;6.798;2023-04-25T02:03:05;100332.78;;;4.49;100.00
2178;BME280;1095;50.992;6.798;2023-04-25T02:05:34;100326.19;;;4.45;100.00
2178;BME280;1095;50.992;6.798;2023-04-25T02:08:00;100327.84;;;4.46;100.00
2178;BME280;1095;50.992;6.798;2023-04-25T02:10:27;100329.00;;;4.53;100.00
2178;BME280;1095;50.992;6.798;2023-04-25T02:12:54;100335.56;;;4.57;100.00
2178;BME280;1095;50.992;6.798;2023-04-25T02:15:21;100340.97;;;4.65;100.00
2178;BME280;1095;50.992;6.798;2023-04-25T02:17:47;100338.13;;;4.68;100.00
2178;BME280;1095;50.992;6.798;2023-04-25T02:20:14;100329.94;;;4.73;100.00
2178;BME280;1095;50.992;6.798;2023-04-25T02:22:41;100334.81;;;4.87;100.00
2178;BME280;1095;50.992;6.798;2023-04-25T02:25:08;100342.78;;;4.95;100.00
2178;BME280;1095;50.992;6.798;2023-04-25T02:27:35;100327.09;;;4.96;100.00
2178;BME280;1095;50.992;6.798;2023-04-25T02:30:03;100329.06;;;5.04;100.00
2178;BME280;1095;50.992;6.798;2023-04-25T02:32:31;100327.41;;;5.03;100.00
2178;BME280;1095;50.992;6.798;2023-04-25T02:34:59;100328.00;;;5.07;100.00
2178;BME280;1095;50.992;6.798;2023-04-25T02:37:28;100326.78;;;5.11;100.00
2178;BME280;1095;50.992;6.798;2023-04-25T02:39:55;100328.19;;;5.15;100.00
2178;BME280;1095;50.992;6.798;2023-04-25T02:42:21;100324.38;;;5.19;100.00
2178;BME280;1095;50.992;6.798;2023-04-25T02:44:48;100318.63;;;5.15;100.00
2178;BME280;1095;50.992;6.798;2023-04-25T02:47:15;100322.28;;;5.13;100.00
2178;BME280;1095;50.992;6.798;2023-04-25T02:49:42;100327.22;;;5.16;100.00
2178;BME280;1095;50.992;6.798;2023-04-25T02:52:08;100329.13;;;5.14;100.00
2178;BME280;1095;50.992;6.798;2023-04-25T02:54:35;100329.50;;;5.09;100.00
2178;BME280;1095;50.992;6.798;2023-04-25T02:57:01;100322.28;;;5.13;100.00
2178;BME280;1095;50.992;6.798;2023-04-25T02:59:28;100323.38;;;5.10;100.00
2178;BME280;1095;50.992;6.798;2023-04-25T03:01:55;100331.28;;;5.09;100.00
2178;BME280;1095;50.992;6.798;2023-04-25T03:04:22;100325.41;;;5.07;100.00
2178;BME280;1095;50.992;6.798;2023-04-25T03:06:50;100326.34;;;5.06;100.00
2178;BME280;1095;50.992;6.798;2023-04-25T03:09:16;100319.25;;;5.08;100.00
2178;BME280;1095;50.992;6.798;2023-04-25T03:11:43;100331.16;;;5.10;100.00
2178;BME280;1095;50.992;6.798;2023-04-25T03:14:09;100334.19;;;5.15;100.00
2178;BME280;1095;50.992;6.798;2023-04-25T03:16:36;100331.34;;;5.18;100.00
2178;BME280;1095;50.992;6.798;2023-04-25T03:19:02;100326.69;;;5.22;100.00
2178;BME280;1095;50.992;6.798;2023-04-25T03:21:30;100331.88;;;5.22;100.00
2178;BME280;1095;50.992;6.798;2023-04-25T03:23:57;100326.69;;;5.22;100.00
2178;BME280;1095;50.992;6.798;2023-04-25T03:26:23;100332.16;;;5.19;100.00
2178;BME280;1095;50.992;6.798;2023-04-25T03:28:50;100327.25;;;5.25;100.00
2178;BME280;1095;50.992;6.798;2023-04-25T03:31:16;100329.59;;;5.28;100.00
2178;BME280;1095;50.992;6.798;2023-04-25T03:33:43;100329.19;;;5.33;100.00
2178;BME280;1095;50.992;6.798;2023-04-25T03:36:09;100333.69;;;5.31;100.00
2178;BME280;1095;50.992;6.798;2023-04-25T03:38:37;100337.69;;;5.35;100.00
2178;BME280;1095;50.992;6.798;2023-04-25T03:41:03;100329.19;;;5.33;100.00
2178;BME280;1095;50.992;6.798;2023-04-25T03:43:30;100335.09;;;5.35;100.00
2178;BME280;1095;50.992;6.798;2023-04-25T03:45:56;100339.63;;;5.43;100.00
2178;BME280;1095;50.992;6.798;2023-04-25T03:48:22;100331.97;;;5.41;100.00
2178;BME280;1095;50.992;6.798;2023-04-25T03:50:49;100338.81;;;5.42;100.00
2178;BME280;1095;50.992;6.798;2023-04-25T03:53:16;100337.59;;;5.46;100.00
2178;BME280;1095;50.992;6.798;2023-04-25T03:55:43;100335.25;;;5.43;100.00
2178;BME280;1095;50.992;6.798;2023-04-25T03:58:10;100333.63;;;5.42;100.00
2178;BME280;1095;50.992;6.798;2023-04-25T04:00:36;100330.91;;;5.44;100.00
2178;BME280;1095;50.992;6.798;2023-04-25T04:03:03;100338.69;;;5.44;100.00
2178;BME280;1095;50.992;6.798;2023-04-25T04:05:29;100342.78;;;5.46;100.00
2178;BME280;1095;50.992;6.798;2023-04-25T04:07:56;100340.31;;;5.45;100.00
2178;BME280;1095;50.992;6.798;2023-04-25T04:10:22;100340.88;;;5.48;100.00
2178;BME280;1095;50.992;6.798;2023-04-25T04:12:50;100353.84;;;5.48;100.00
2178;BME280;1095;50.992;6.798;2023-04-25T04:15:16;100352.72;;;5.41;100.00
2178;BME280;1095;50.992;6.798;2023-04-25T04:17:43;100352.47;;;5.44;100.00
2178;BME280;1095;50.992;6.798;2023-04-25T04:20:09;100358.47;;;5.45;100.00
2178;BME280;1095;50.992;6.798;2023-04-25T04:22:36;100349.88;;;5.44;100.00
2178;BME280;1095;50.992;6.798;2023-04-25T04:25:03;100359.31;;;5.45;100.00
2178;BME280;1095;50.992;6.798;2023-04-25T04:27:30;100357.66;;;5.44;100.00
2178;BME280;1095;50.992;6.798;2023-04-25T04:29:58;100362.97;;;5.43;100.00
2178;BME280;1095;50.992;6.798;2023-04-25T04:32:25;100365.72;;;5.41;100.00
2178;BME280;1095;50.992;6.798;2023-04-25T04:34:53;100371.59;;;5.43;100.00
2178;BME280;1095;50.992;6.798;2023-04-25T04:37:20;100366.28;;;5.45;100.00
2178;BME280;1095;50.992;6.798;2023-04-25T04:39:46;100372.16;;;5.47;100.00
2178;BME280;1095;50.992;6.798;2023-04-25T04:42:13;100373.16;;;5.55;100.00
2178;BME280;1095;50.992;6.798;2023-04-25T04:44:39;100385.75;;;5.60;100.00
2178;BME280;1095;50.992;6.798;2023-04-25T04:47:07;100386.69;;;5.59;100.00
2178;BME280;1095;50.992;6.798;2023-04-25T04:49:35;100392.72;;;5.59;100.00
2178;BME280;1095;50.992;6.798;2023-04-25T04:52:02;100394.09;;;5.63;100.00
2178;BME280;1095;50.992;6.798;2023-04-25T04:54:28;100394.78;;;5.65;100.00
2178;BME280;1095;50.992;6.798;2023-04-25T04:56:55;100402.84;;;5.72;100.00
2178;BME280;1095;50.992;6.798;2023-04-25T04:59:21;100404.66;;;5.81;100.00
2178;BME280;1095;50.992;6.798;2023-04-25T05:01:47;100407.25;;;5.81;100.00
2178;BME280;1095;50.992;6.798;2023-04-25T05:04:15;100416.09;;;5.90;100.00
2178;BME280;1095;50.992;6.798;2023-04-25T05:06:42;100415.69;;;5.94;100.00
2178;BME280;1095;50.992;6.798;2023-04-25T05:09:09;100413.91;;;5.95;100.00
2178;BME280;1095;50.992;6.798;2023-04-25T05:11:35;100419.72;;;6.08;100.00
2178;BME280;1095;50.992;6.798;2023-04-25T05:14:02;100410.69;;;6.12;100.00
2178;BME280;1095;50.992;6.798;2023-04-25T05:16:28;100417.81;;;6.20;100.00
2178;BME280;1095;50.992;6.798;2023-04-25T05:18:55;100432.63;;;6.39;100.00
2178;BME280;1095;50.992;6.798;2023-04-25T05:21:23;100432.38;;;6.51;100.00
2178;BME280;1095;50.992;6.798;2023-04-25T05:23:49;100439.50;;;6.69;100.00
2178;BME280;1095;50.992;6.798;2023-04-25T05:26:15;100439.25;;;6.91;99.72
2178;BME280;1095;50.992;6.798;2023-04-25T05:28:42;100440.44;;;7.25;98.55
2178;BME280;1095;50.992;6.798;2023-04-25T05:31:09;100461.56;;;7.79;96.87
2178;BME280;1095;50.992;6.798;2023-04-25T05:33:35;100466.13;;;8.31;94.78
2178;BME280;1095;50.992;6.798;2023-04-25T05:36:02;100458.13;;;8.88;92.05
2178;BME280;1095;50.992;6.798;2023-04-25T05:38:30;100454.66;;;9.05;89.47
2178;BME280;1095;50.992;6.798;2023-04-25T05:40:57;100435.09;;;9.27;87.64
2178;BME280;1095;50.992;6.798;2023-04-25T05:43:23;100448.44;;;9.42;86.26
2178;BME280;1095;50.992;6.798;2023-04-25T05:45:50;100442.78;;;9.54;85.28
2178;BME280;1095;50.992;6.798;2023-04-25T05:48:16;100447.19;;;9.28;85.03
2178;BME280;1095;50.992;6.798;2023-04-25T05:50:42;100455.56;;;9.14;84.92
2178;BME280;1095;50.992;6.798;2023-04-25T05:53:09;100445.78;;;8.98;83.83
2178;BME280;1095;50.992;6.798;2023-04-25T05:55:37;100454.50;;;9.07;83.97
2178;BME280;1095;50.992;6.798;2023-04-25T05:58:04;100451.19;;;9.40;82.89
2178;BME280;1095;50.992;6.798;2023-04-25T06:00:31;100462.09;;;9.61;82.17
2178;BME280;1095;50.992;6.798;2023-04-25T06:02:57;100459.75;;;10.10;80.97
2178;BME280;1095;50.992;6.798;2023-04-25T06:05:24;100456.06;;;10.79;78.81
2178;BME280;1095;50.992;6.798;2023-04-25T06:07:50;100456.34;;;10.68;77.16
2178;BME280;1095;50.992;6.798;2023-04-25T06:10:16;100451.13;;;10.76;76.67
2178;BME280;1095;50.992;6.798;2023-04-25T06:12:44;100457.03;;;10.78;76.68
2178;BME280;1095;50.992;6.798;2023-04-25T06:15:11;100469.84;;;10.05;77.39
2178;BME280;1095;50.992;6.798;2023-04-25T06:17:37;100467.59;;;9.76;78.45
2178;BME280;1095;50.992;6.798;2023-04-25T06:20:04;100475.78;;;9.55;80.13
2178;BME280;1095;50.992;6.798;2023-04-25T06:22:31;100474.06;;;9.03;80.17
2178;BME280;1095;50.992;6.798;2023-04-25T06:24:57;100477.66;;;9.45;80.69
2178;BME280;1095;50.992;6.798;2023-04-25T06:27:25;100474.34;;;9.35;79.91
2178;BME280;1095;50.992;6.798;2023-04-25T06:29:52;100478.22;;;9.57;80.12
2178;BME280;1095;50.992;6.798;2023-04-25T06:32:19;100478.81;;;9.69;80.02
2178;BME280;1095;50.992;6.798;2023-04-25T06:34:45;100468.47;;;9.15;80.05
2178;BME280;1095;50.992;6.798;2023-04-25T06:37:12;100470.91;;;9.60;79.19
2178;BME280;1095;50.992;6.798;2023-04-25T06:39:38;100468.03;;;9.72;78.92
2178;BME280;1095;50.992;6.798;2023-04-25T06:42:04;100472.63;;;9.26;78.20
2178;BME280;1095;50.992;6.798;2023-04-25T06:44:31;100480.25;;;9.19;78.46
2178;BME280;1095;50.992;6.798;2023-04-25T06:46:59;100485.47;;;9.45;79.08
2178;BME280;1095;50.992;6.798;2023-04-25T06:49:25;100482.88;;;9.45;78.67
2178;BME280;1095;50.992;6.798;2023-04-25T06:51:51;100491.97;;;9.59;78.56
2178;BME280;1095;50.992;6.798;2023-04-25T06:54:18;100477.91;;;9.34;78.55
2178;BME280;1095;50.992;6.798;2023-04-25T06:56:44;100486.06;;;9.31;79.02
2178;BME280;1095;50.992;6.798;2023-04-25T06:59:11;100490.75;;;9.10;78.44
2178;BME280;1095;50.992;6.798;2023-04-25T07:01:37;100504.56;;;8.84;79.91
2178;BME280;1095;50.992;6.798;2023-04-25T07:04:05;100503.38;;;8.96;80.22
2178;BME280;1095;50.992;6.798;2023-04-25T07:06:33;100502.03;;;9.28;80.10
2178;BME280;1095;50.992;6.798;2023-04-25T07:08:59;100500.31;;;9.37;79.07
2178;BME280;1095;50.992;6.798;2023-04-25T07:11:28;100494.97;;;9.46;78.30
2178;BME280;1095;50.992;6.798;2023-04-25T07:13:54;100500.66;;;9.42;77.59
2178;BME280;1095;50.992;6.798;2023-04-25T07:16:21;100505.72;;;9.87;77.09
2178;BME280;1095;50.992;6.798;2023-04-25T07:18:47;100509.38;;;10.02;76.37
2178;BME280;1095;50.992;6.798;2023-04-25T07:21:23;100518.34;;;10.25;76.58
2178;BME280;1095;50.992;6.798;2023-04-25T07:23:49;100518.09;;;9.85;75.33
2178;BME280;1095;50.992;6.798;2023-04-25T07:26:16;100513.03;;;9.83;75.70
2178;BME280;1095;50.992;6.798;2023-04-25T07:28:42;100517.03;;;9.52;75.89
2178;BME280;1095;50.992;6.798;2023-04-25T07:31:09;100512.75;;;9.43;75.71
2178;BME280;1095;50.992;6.798;2023-04-25T07:33:35;100515.47;;;9.59;76.50
2178;BME280;1095;50.992;6.798;2023-04-25T07:36:02;100527.84;;;9.75;76.46
2178;BME280;1095;50.992;6.798;2023-04-25T07:38:30;100506.81;;;9.58;75.27
2178;BME280;1095;50.992;6.798;2023-04-25T07:40:56;100520.31;;;9.72;75.22
2178;BME280;1095;50.992;6.798;2023-04-25T07:43:22;100506.22;;;9.64;75.09
2178;BME280;1095;50.992;6.798;2023-04-25T07:45:49;100504.88;;;9.60;74.93
2178;BME280;1095;50.992;6.798;2023-04-25T07:48:16;100503.94;;;9.95;74.58
2178;BME280;1095;50.992;6.798;2023-04-25T07:50:42;100514.63;;;10.10;73.94
2178;BME280;1095;50.992;6.798;2023-04-25T07:53:09;100516.22;;;10.03;73.36
2178;BME280;1095;50.992;6.798;2023-04-25T07:55:37;100519.53;;;9.79;73.49
2178;BME280;1095;50.992;6.798;2023-04-25T07:58:05;100531.09;;;10.03;73.58
2178;BME280;1095;50.992;6.798;2023-04-25T08:00:31;100536.75;;;10.16;73.11
2178;BME280;1095;50.992;6.798;2023-04-25T08:02:57;100533.72;;;10.28;73.02
2178;BME280;1095;50.992;6.798;2023-04-25T08:05:24;100540.34;;;10.49;73.10
2178;BME280;1095;50.992;6.798;2023-04-25T08:07:50;100529.69;;;10.34;71.96
2178;BME280;1095;50.992;6.798;2023-04-25T08:10:17;100535.03;;;10.24;71.19
2178;BME280;1095;50.992;6.798;2023-04-25T08:12:45;100530.66;;;10.33;70.75
2178;BME280;1095;50.992;6.798;2023-04-25T08:15:11;100542.66;;;10.52;70.64
2178;BME280;1095;50.992;6.798;2023-04-25T08:17:38;100553.88;;;10.78;71.04
2178;BME280;1095;50.992;6.798;2023-04-25T08:20:05;100551.47;;;11.01;70.64
2178;BME280;1095;50.992;6.798;2023-04-25T08:22:32;100546.09;;;11.11;69.49
2178;BME280;1095;50.992;6.798;2023-04-25T08:24:59;100552.56;;;10.82;69.88
2178;BME280;1095;50.992;6.798;2023-04-25T08:27:25;100562.75;;;11.02;70.08
2178;BME280;1095;50.992;6.798;2023-04-25T08:29:53;100547.50;;;10.81;69.08
2178;BME280;1095;50.992;6.798;2023-04-25T08:32:19;100552.34;;;11.26;68.61
2178;BME280;1095;50.992;6.798;2023-04-25T08:34:47;100561.84;;;11.84;67.50
2178;BME280;1095;50.992;6.798;2023-04-25T08:37:13;100562.81;;;11.75;66.63
2178;BME280;1095;50.992;6.798;2023-04-25T08:39:39;100549.31;;;10.96;64.71
2178;BME280;1095;50.992;6.798;2023-04-25T08:42:07;100569.09;;;10.91;65.52
2178;BME280;1095;50.992;6.798;2023-04-25T08:44:33;100567.75;;;10.71;65.69
2178;BME280;1095;50.992;6.798;2023-04-25T08:47:02;100572.88;;;10.96;66.19
2178;BME280;1095;50.992;6.798;2023-04-25T08:49:29;100578.44;;;10.93;66.14
2178;BME280;1095;50.992;6.798;2023-04-25T08:51:56;100585.69;;;11.08;66.50
2178;BME280;1095;50.992;6.798;2023-04-25T08:54:24;100586.22;;;11.27;66.72
2178;BME280;1095;50.992;6.798;2023-04-25T08:56:53;100593.63;;;10.82;67.70
2178;BME280;1095;50.992;6.798;2023-04-25T08:59:20;100596.78;;;11.02;67.69
2178;BME280;1095;50.992;6.798;2023-04-25T09:01:47;100609.69;;;10.87;68.45
2178;BME280;1095;50.992;6.798;2023-04-25T09:04:16;100595.84;;;10.60;66.61
2178;BME280;1095;50.992;6.798;2023-04-25T09:06:43;100608.38;;;10.49;67.00
2178;BME280;1095;50.992;6.798;2023-04-25T09:09:10;100605.00;;;10.64;67.22
2178;BME280;1095;50.992;6.798;2023-04-25T09:11:37;100604.50;;;10.61;66.68
2178;BME280;1095;50.992;6.798;2023-04-25T09:14:10;100610.41;;;10.63;67.01
2178;BME280;1095;50.992;6.798;2023-04-25T09:16:39;100604.34;;;10.62;66.08
2178;BME280;1095;50.992;6.798;2023-04-25T09:19:25;100599.25;;;11.03;64.37
2178;BME280;1095;50.992;6.798;2023-04-25T09:21:53;100594.88;;;11.20;63.53
2178;BME280;1095;50.992;6.798;2023-04-25T09:24:20;100603.38;;;11.14;63.44
2178;BME280;1095;50.992;6.798;2023-04-25T09:26:55;100613.06;;;10.71;63.19
2178;BME280;1095;50.992;6.798;2023-04-25T09:29:26;100616.00;;;10.68;63.48
2178;BME280;1095;50.992;6.798;2023-04-25T09:32:00;100599.69;;;10.48;63.55
2178;BME280;1095;50.992;6.798;2023-04-25T09:34:39;100620.88;;;10.63;65.03
2178;BME280;1095;50.992;6.798;2023-04-25T09:37:08;100616.31;;;10.65;64.84
2178;BME280;1095;50.992;6.798;2023-04-25T09:39:35;100620.31;;;10.93;64.66
2178;BME280;1095;50.992;6.798;2023-04-25T09:42:02;100613.28;;;10.86;64.50
2178;BME280;1095;50.992;6.798;2023-04-25T09:44:29;100636.84;;;10.52;64.83
2178;BME280;1095;50.992;6.798;2023-04-25T09:46:55;100636.13;;;10.42;65.66
2178;BME280;1095;50.992;6.798;2023-04-25T09:49:22;100636.84;;;10.08;65.91
2178;BME280;1095;50.992;6.798;2023-04-25T09:51:56;100643.28;;;9.96;66.92
2178;BME280;1095;50.992;6.798;2023-04-25T09:54:23;100648.25;;;9.81;67.57
2178;BME280;1095;50.992;6.798;2023-04-25T09:56:50;100657.06;;;9.80;67.80
2178;BME280;1095;50.992;6.798;2023-04-25T09:59:17;100656.84;;;9.74;67.72
2178;BME280;1095;50.992;6.798;2023-04-25T10:01:45;100662.38;;;9.71;67.72
2178;BME280;1095;50.992;6.798;2023-04-25T10:04:12;100663.78;;;9.83;67.33
2178;BME280;1095;50.992;6.798;2023-04-25T10:06:38;100672.00;;;9.88;67.84
2178;BME280;1095;50.992;6.798;2023-04-25T10:09:09;100671.34;;;9.86;68.95
2178;BME280;1095;50.992;6.798;2023-04-25T10:11:37;100681.50;;;9.89;68.85
2178;BME280;1095;50.992;6.798;2023-04-25T10:14:04;100672.19;;;10.12;68.31
2178;BME280;1095;50.992;6.798;2023-04-25T10:16:31;100676.16;;;10.34;67.39
2178;BME280;1095;50.992;6.798;2023-04-25T10:18:58;100671.00;;;10.24;66.62
2178;BME280;1095;50.992;6.798;2023-04-25T10:21:24;100661.66;;;11.16;65.83
2178;BME280;1095;50.992;6.798;2023-04-25T10:23:53;100652.53;;;11.44;63.82
2178;BME280;1095;50.992;6.798;2023-04-25T10:26:22;100649.50;;;12.06;61.61
2178;BME280;1095;50.992;6.798;2023-04-25T10:28:54;100653.44;;;12.02;60.78
2178;BME280;1095;50.992;6.798;2023-04-25T10:31:21;100665.88;;;11.75;61.04
2178;BME280;1095;50.992;6.798;2023-04-25T10:33:48;100653.69;;;11.34;60.90
2178;BME280;1095;50.992;6.798;2023-04-25T10:36:15;100681.81;;;10.81;62.77
2178;BME280;1095;50.992;6.798;2023-04-25T10:38:43;100691.31;;;9.95;64.93
2178;BME280;1095;50.992;6.798;2023-04-25T10:41:10;100694.41;;;9.73;66.83
2178;BME280;1095;50.992;6.798;2023-04-25T10:43:38;100694.47;;;9.81;67.40
2178;BME280;1095;50.992;6.798;2023-04-25T10:46:17;100682.69;;;9.77;65.83
2178;BME280;1095;50.992;6.798;2023-04-25T10:48:48;100678.56;;;9.92;65.51
2178;BME280;1095;50.992;6.798;2023-04-25T10:51:19;100677.59;;;9.75;64.60
2178;BME280;1095;50.992;6.798;2023-04-25T10:53:46;100678.16;;;10.05;64.39
2178;BME280;1095;50.992;6.798;2023-04-25T10:56:16;100677.88;;;10.25;64.17
2178;BME280;1095;50.992;6.798;2023-04-25T10:58:45;100677.25;;;10.57;64.04
2178;BME280;1095;50.992;6.798;2023-04-25T11:01:12;100662.22;;;10.93;63.34
2178;BME280;1095;50.992;6.798;2023-04-25T11:03:41;100662.78;;;11.13;62.01
2178;BME280;1095;50.992;6.798;2023-04-25T11:06:09;100670.34;;;11.16;61.85
2178;BME280;1095;50.992;6.798;2023-04-25T11:08:43;100666.97;;;11.56;61.72
2178;BME280;1095;50.992;6.798;2023-04-25T11:11:13;100673.09;;;12.06;61.28
2178;BME280;1095;50.992;6.798;2023-04-25T11:13:40;100661.31;;;12.18;60.67
2178;BME280;1095;50.992;6.798;2023-04-25T11:16:08;100660.47;;;12.25;59.95
2178;BME280;1095;50.992;6.798;2023-04-25T11:18:34;100668.03;;;12.04;60.71
2178;BME280;1095;50.992;6.798;2023-04-25T11:21:02;100671.28;;;12.30;60.52
2178;BME280;1095;50.992;6.798;2023-04-25T11:23:28;100669.31;;;12.33;60.22
2178;BME280;1095;50.992;6.798;2023-04-25T11:25:56;100668.78;;;12.53;59.35
2178;BME280;1095;50.992;6.798;2023-04-25T11:28:22;100654.59;;;12.23;58.68
2178;BME280;1095;50.992;6.798;2023-04-25T11:30:49;100658.34;;;11.72;58.19
2178;BME280;1095;50.992;6.798;2023-04-25T11:33:22;100662.09;;;11.70;57.89
2178;BME280;1095;50.992;6.798;2023-04-25T11:35:57;100661.59;;;11.66;58.02
2178;BME280;1095;50.992;6.798;2023-04-25T11:38:24;100667.13;;;11.47;57.19
2178;BME280;1095;50.992;6.798;2023-04-25T11:40:51;100651.81;;;11.10;56.93
2178;BME280;1095;50.992;6.798;2023-04-25T11:43:17;100660.72;;;10.83;57.64
2178;BME280;1095;50.992;6.798;2023-04-25T11:45:45;100665.91;;;10.75;58.20
2178;BME280;1095;50.992;6.798;2023-04-25T11:48:12;100659.38;;;10.79;58.76
2178;BME280;1095;50.992;6.798;2023-04-25T11:50:40;100675.78;;;11.39;59.27
2178;BME280;1095;50.992;6.798;2023-04-25T11:53:06;100657.38;;;11.89;58.58
2178;BME280;1095;50.992;6.798;2023-04-25T11:55:33;100657.53;;;12.04;57.47
2178;BME280;1095;50.992;6.798;2023-04-25T11:58:01;100656.50;;;11.64;57.00
2178;BME280;1095;50.992;6.798;2023-04-25T12:00:28;100644.25;;;11.98;55.82
2178;BME280;1095;50.992;6.798;2023-04-25T12:02:55;100659.66;;;12.25;55.22
2178;BME280;1095;50.992;6.798;2023-04-25T12:05:23;100658.03;;;12.79;54.58
2178;BME280;1095;50.992;6.798;2023-04-25T12:07:51;100658.56;;;13.22;54.25
2178;BME280;1095;50.992;6.798;2023-04-25T12:10:18;100657.50;;;13.31;54.56
2178;BME280;1095;50.992;6.798;2023-04-25T12:12:46;100651.84;;;13.19;54.23
2178;BME280;1095;50.992;6.798;2023-04-25T12:15:13;100673.38;;;12.99;54.60
2178;BME280;1095;50.992;6.798;2023-04-25T12:17:41;100669.34;;;12.80;53.97
2178;BME280;1095;50.992;6.798;2023-04-25T12:20:08;100669.63;;;12.46;53.89
2178;BME280;1095;50.992;6.798;2023-04-25T12:22:34;100668.31;;;12.42;53.25
2178;BME280;1095;50.992;6.798;2023-04-25T12:25:02;100674.59;;;12.24;54.24
2178;BME280;1095;50.992;6.798;2023-04-25T12:27:30;100670.31;;;11.83;55.12
2178;BME280;1095;50.992;6.798;2023-04-25T12:29:57;100687.03;;;11.98;55.98
2178;BME280;1095;50.992;6.798;2023-04-25T12:32:23;100693.59;;;11.94;56.65
2178;BME280;1095;50.992;6.798;2023-04-25T12:34:50;100692.72;;;11.69;56.95
2178;BME280;1095;50.992;6.798;2023-04-25T12:37:17;100705.22;;;11.83;57.98
2178;BME280;1095;50.992;6.798;2023-04-25T12:39:43;100719.75;;;11.61;58.55
2178;BME280;1095;50.992;6.798;2023-04-25T12:42:11;100713.50;;;11.54;58.08
2178;BME280;1095;50.992;6.798;2023-04-25T12:44:37;100719.09;;;11.59;58.70
2178;BME280;1095;50.992;6.798;2023-04-25T12:47:04;100720.38;;;11.55;59.34
2178;BME280;1095;50.992;6.798;2023-04-25T12:49:31;100723.75;;;11.90;59.53
2178;BME280;1095;50.992;6.798;2023-04-25T12:51:58;100721.13;;;11.98;59.07
2178;BME280;1095;50.992;6.798;2023-04-25T12:54:24;100720.34;;;11.47;58.99
2178;BME280;1095;50.992;6.798;2023-04-25T12:56:50;100714.00;;;11.58;59.10
2178;BME280;1095;50.992;6.798;2023-04-25T12:59:19;100715.19;;;11.72;59.22
2178;BME280;1095;50.992;6.798;2023-04-25T13:01:46;100695.41;;;11.27;57.06
2178;BME280;1095;50.992;6.798;2023-04-25T13:04:12;100696.78;;;11.55;56.01
2178;BME280;1095;50.992;6.798;2023-04-25T13:06:39;100695.56;;;11.25;55.52
2178;BME280;1095;50.992;6.798;2023-04-25T13:09:05;100700.53;;;11.45;55.96
2178;BME280;1095;50.992;6.798;2023-04-25T13:11:32;100684.78;;;11.28;53.63